Time;durP1;ratioP1;P1;durP2;ratioP2;P2;SDS_P1;SDS_P2;PMS_P1;PMS_P2;Temp;Humidity;BMP_temperature;BMP_pressure;BME280_temperature;BME280_humidity;BME280_pressure;Samples;Min_cycle;Max_cycle;Signal;HPM_P1;HPM_P2
2022/08/11 00:01:49;;;;;;;4.82;2.90;;;21.40;16.10;;;;;;5054184;28;20433;-76
2022/08/11 00:04:16;;;;;;;4.60;2.90;;;21.30;16.30;;;;;;5058503;28;20499;-76
2022/08/11 00:06:49;;;;;;;4.50;3.20;;;21.10;16.60;;;;;;5060243;28;20435;-78
2022/08/11 00:09:19;;;;;;;3.72;2.90;;;21.00;16.80;;;;;;5056959;28;20393;-77
2022/08/11 00:11:51;;;;;;;6.30;3.40;;;21.00;16.90;;;;;;5054843;28;20436;-77
2022/08/11 00:14:22;;;;;;;4.70;3.33;;;21.00;16.90;;;;;;5055076;28;20409;-76
2022/08/11 00:17:03;;;;;;;5.10;3.20;;;20.80;17.10;;;;;;5057069;28;20374;-77
2022/08/11 00:19:35;;;;;;;6.43;3.22;;;20.90;18.10;;;;;;5053576;28;20378;-77
2022/08/11 00:22:02;;;;;;;6.53;3.10;;;21.10;18.00;;;;;;5054596;28;20432;-77
2022/08/11 00:24:33;;;;;;;5.97;2.90;;;21.00;18.50;;;;;;5056331;28;20408;-77
2022/08/11 00:26:59;;;;;;;5.00;3.20;;;20.90;18.20;;;;;;5054876;28;20394;-76
2022/08/11 00:29:26;;;;;;;8.75;3.25;;;20.90;18.50;;;;;;5054702;28;20385;-77
2022/08/11 00:31:53;;;;;;;7.32;3.22;;;21.00;17.90;;;;;;5054884;28;20397;-77
2022/08/11 00:34:28;;;;;;;8.82;3.70;;;20.90;18.20;;;;;;5036965;28;20428;-77
2022/08/11 00:37:02;;;;;;;4.30;3.10;;;20.70;18.40;;;;;;5053083;28;20516;-77
2022/08/11 00:39:30;;;;;;;6.23;3.50;;;20.60;19.10;;;;;;5052980;28;20402;-77
2022/08/11 00:42:28;;;;;;;8.05;3.72;;;20.70;19.30;;;;;;5052331;28;20425;-77
2022/08/11 00:45:03;;;;;;;5.00;3.40;;;20.70;19.30;;;;;;5011716;28;20390;-76
2022/08/11 00:47:32;;;;;;;7.95;3.47;;;20.70;19.40;;;;;;5065327;28;20477;-77
2022/08/11 00:50:32;;;;;;;10.77;3.70;;;20.60;19.50;;;;;;5058756;28;20449;-78
2022/08/11 00:53:29;;;;;;;5.22;3.80;;;20.50;19.60;;;;;;5053087;28;20381;-76
2022/08/11 00:56:07;;;;;;;9.40;3.70;;;20.50;19.90;;;;;;5052891;28;20377;-77
2022/08/11 00:58:47;;;;;;;9.50;4.00;;;20.50;20.00;;;;;;5052868;28;20370;-76
2022/08/11 01:01:15;;;;;;;13.70;4.55;;;20.40;20.30;;;;;;5051756;28;20864;-77
2022/08/11 01:04:11;;;;;;;12.00;4.50;;;20.10;20.80;;;;;;5052609;28;20390;-76
2022/08/11 01:06:50;;;;;;;9.82;4.20;;;20.20;21.20;;;;;;5052185;28;20480;-78
2022/08/11 01:09:37;;;;;;;7.82;4.50;;;20.20;21.30;;;;;;5055213;28;20385;-78
2022/08/11 01:12:15;;;;;;;6.77;4.33;;;20.30;21.40;;;;;;5053006;28;20474;-77
2022/08/11 01:15:18;;;;;;;8.05;3.90;;;20.20;21.60;;;;;;5055667;28;20433;-77
2022/08/11 01:18:16;;;;;;;8.13;4.30;;;20.10;21.80;;;;;;5055202;28;20461;-76
2022/08/11 01:21:18;;;;;;;11.60;3.60;;;20.10;21.90;;;;;;5052827;28;20396;-77
2022/08/11 01:24:02;;;;;;;8.05;4.30;;;20.00;21.70;;;;;;5053470;28;20377;-77
2022/08/11 01:27:01;;;;;;;9.50;4.20;;;19.90;22.10;;;;;;5052634;28;20722;-76
2022/08/11 01:30:02;;;;;;;7.20;4.10;;;20.00;22.20;;;;;;5051969;28;20389;-77
2022/08/11 01:33:15;;;;;;;7.70;4.30;;;19.90;22.20;;;;;;5053625;28;20383;-77
2022/08/11 01:36:14;;;;;;;8.27;4.10;;;19.90;22.00;;;;;;5052197;28;20746;-77
2022/08/11 01:39:01;;;;;;;8.17;4.60;;;19.60;22.80;;;;;;5054111;28;20464;-77
2022/08/11 01:45:28;;;;;;;12.65;5.68;;;19.60;23.60;;;;;;5056276;28;20483;-77
2022/08/11 01:48:12;;;;;;;7.85;4.50;;;19.70;23.50;;;;;;4979046;28;20431;-77
2022/08/11 01:51:00;;;;;;;6.63;4.15;;;19.70;23.60;;;;;;4978664;28;20420;-77
2022/08/11 01:53:26;;;;;;;13.73;5.78;;;19.60;23.70;;;;;;5039980;28;20415;-76
2022/08/11 01:56:15;;;;;;;8.65;5.32;;;19.60;24.10;;;;;;5056639;28;20381;-76
2022/08/11 01:59:19;;;;;;;7.78;4.60;;;19.60;24.10;;;;;;5060114;28;20405;-76
2022/08/11 02:02:15;;;;;;;9.50;4.95;;;19.50;24.20;;;;;;5093150;28;20395;-76
2022/08/11 02:04:56;;;;;;;8.82;4.60;;;19.40;24.50;;;;;;5091691;28;20401;-77
2022/08/11 02:07:46;;;;;;;11.55;5.00;;;19.30;24.90;;;;;;5065128;22;20515;-77
2022/08/11 02:13:45;;;;;;;10.65;4.90;;;19.20;25.40;;;;;;5040143;28;20946;-76
2022/08/11 02:16:35;;;;;;;8.57;4.50;;;19.40;24.50;;;;;;5039813;28;20379;-76
2022/08/11 04:09:53;;;;;;;9.63;6.57;;;17.40;38.00;;;;;;5034120;28;20763;-75
2022/08/11 04:12:34;;;;;;;8.02;6.05;;;17.40;38.40;;;;;;5033833;28;20382;-75
2022/08/11 04:18:23;;;;;;;10.70;6.60;;;17.60;38.70;;;;;;5034716;28;20462;-75
2022/08/11 04:21:18;;;;;;;16.95;7.13;;;17.70;37.30;;;;;;5032440;28;20390;-75
2022/08/11 04:24:07;;;;;;;13.73;8.25;;;17.60;37.90;;;;;;5033829;28;20384;-75
2022/08/11 04:26:36;;;;;;;16.48;6.60;;;17.40;38.90;;;;;;5032826;28;20957;-75
2022/08/11 04:29:28;;;;;;;12.98;6.45;;;17.30;40.10;;;;;;5032969;28;20391;-75
2022/08/11 04:32:09;;;;;;;12.05;6.80;;;17.30;40.90;;;;;;5034306;28;20419;-75
2022/08/11 04:34:43;;;;;;;9.93;6.55;;;17.40;40.10;;;;;;5034357;28;20407;-75
2022/08/11 04:37:33;;;;;;;13.10;6.43;;;17.50;39.70;;;;;;5039053;28;20394;-75
2022/08/11 04:40:16;;;;;;;9.07;6.53;;;17.50;39.50;;;;;;5040782;28;20433;-76
2022/08/11 04:43:19;;;;;;;13.68;6.57;;;17.70;38.40;;;;;;5037928;28;20880;-75
2022/08/11 04:46:00;;;;;;;10.35;5.85;;;17.80;37.80;;;;;;5034677;28;20440;-75
2022/08/11 05:01:41;;;;;;;12.80;5.57;;;17.70;35.90;;;;;;4982602;28;20418;-75
2022/08/11 05:07:12;;;;;;;10.75;6.15;;;17.80;34.70;;;;;;5032869;28;20473;-75
2022/08/11 05:09:49;;;;;;;12.90;6.18;;;17.90;34.10;;;;;;5032842;28;20383;-75
2022/08/11 05:12:35;;;;;;;10.48;5.60;;;18.10;34.00;;;;;;5033064;28;20456;-75
2022/08/11 05:35:30;;;;;;;11.98;6.25;;;19.10;29.10;;;;;;5032092;28;20923;-74
2022/08/11 05:57:31;;;;;;;18.60;6.32;;;20.00;25.70;;;;;;5031903;28;20925;-75
2022/08/11 06:00:04;;;;;;;19.95;6.53;;;20.30;24.70;;;;;;5031320;28;20494;-75
2022/08/11 06:02:30;;;;;;;15.98;6.60;;;20.40;24.00;;;;;;5031444;28;20855;-75
2022/08/11 06:05:00;;;;;;;17.88;6.80;;;20.40;23.90;;;;;;5031403;28;20489;-75
2022/08/11 06:07:31;;;;;;;11.48;6.28;;;20.50;24.20;;;;;;5032430;28;20395;-74
2022/08/11 06:09:58;;;;;;;9.60;5.50;;;20.50;24.20;;;;;;5031902;28;20399;-75
2022/08/11 06:12:36;;;;;;;10.15;6.25;;;20.70;23.30;;;;;;5033566;28;20435;-76
2022/08/11 06:15:08;;;;;;;12.50;6.55;;;20.90;22.90;;;;;;5035685;28;20516;-75
2022/08/11 06:17:44;;;;;;;15.83;6.50;;;21.00;21.70;;;;;;5046800;28;20422;-75
2022/08/11 06:20:11;;;;;;;14.30;6.50;;;21.10;21.00;;;;;;5029888;28;20453;-75
2022/08/11 06:22:40;;;;;;;16.38;7.00;;;21.20;20.30;;;;;;5031031;28;20383;-74
2022/08/11 06:25:08;;;;;;;19.75;7.38;;;21.30;20.40;;;;;;5031053;28;20400;-75
2022/08/11 06:27:36;;;;;;;20.20;6.85;;;21.30;20.50;;;;;;5032507;28;20434;-75
2022/08/11 06:30:12;;;;;;;18.42;7.93;;;21.40;20.00;;;;;;5033312;28;20390;-75
2022/08/11 06:32:41;;;;;;;14.90;7.40;;;21.50;20.00;;;;;;5035011;28;20382;-74
2022/08/11 06:35:37;;;;;;;25.75;7.22;;;21.60;19.70;;;;;;5034837;28;20407;-74
2022/08/11 06:38:28;;;;;;;19.48;7.32;;;21.80;18.40;;;;;;5035070;28;20482;-75
2022/08/11 06:44:25;;;;;;;15.90;6.53;;;22.00;17.40;;;;;;5014922;28;20391;-74
2022/08/11 06:46:54;;;;;;;17.80;6.03;;;21.90;17.00;;;;;;5014111;28;20827;-76
2022/08/11 06:52:12;;;;;;;16.35;6.50;;;22.10;17.00;;;;;;5015351;28;20396;-76
2022/08/11 06:54:43;;;;;;;13.15;6.63;;;22.10;17.10;;;;;;5019974;28;20413;-75
2022/08/11 07:03:11;;;;;;;15.00;6.30;;;22.50;16.20;;;;;;5016651;28;20396;-74
2022/08/11 07:05:44;;;;;;;11.40;5.97;;;22.70;15.00;;;;;;5016436;28;20384;-75
2022/08/11 07:28:58;;;;;;;10.65;5.45;;;23.60;13.20;;;;;;5013212;28;20384;-75
2022/08/11 07:31:42;;;;;;;10.80;4.93;;;23.80;13.00;;;;;;5027235;28;20806;-75
2022/08/11 07:34:26;;;;;;;14.68;5.28;;;23.80;12.50;;;;;;5015223;28;20420;-75
2022/08/11 07:36:58;;;;;;;10.70;5.75;;;23.90;12.10;;;;;;5008960;28;20439;-75
2022/08/11 07:39:27;;;;;;;10.47;5.30;;;24.00;12.20;;;;;;5025047;28;20395;-75
2022/08/11 07:41:55;;;;;;;8.55;5.30;;;24.20;12.10;;;;;;5014793;28;20452;-76
2022/08/11 07:44:27;;;;;;;11.48;5.63;;;24.30;11.70;;;;;;5006756;28;20488;-76
2022/08/11 07:52:29;;;;;;;7.63;5.00;;;24.60;11.00;;;;;;5014901;28;20416;-74
2022/08/11 07:55:06;;;;;;;17.08;8.55;;;24.80;10.90;;;;;;5021361;28;20913;-75
2022/08/11 08:19:46;;;;;;;5.25;4.22;;;25.70;8.20;;;;;;5057473;28;21099;-77
2022/08/11 08:22:16;;;;;;;10.27;4.57;;;25.80;7.50;;;;;;5053030;28;20476;-78
2022/08/11 08:24:42;;;;;;;11.20;4.72;;;25.90;7.40;;;;;;5049233;28;20661;-77
2022/08/11 08:27:11;;;;;;;14.83;4.50;;;26.00;8.00;;;;;;5042059;28;20399;-77
2022/08/11 08:32:22;;;;;;;8.82;4.75;;;26.10;7.60;;;;;;5037704;28;20403;-78
2022/08/11 08:34:54;;;;;;;9.25;4.25;;;26.30;6.80;;;;;;5032563;28;20891;-77
2022/08/11 08:37:22;;;;;;;12.80;5.53;;;26.30;6.90;;;;;;5041629;28;20393;-76
2022/08/11 08:39:49;;;;;;;6.53;4.30;;;26.40;7.10;;;;;;5052091;28;20411;-77
2022/08/11 08:42:23;;;;;;;6.78;4.50;;;26.40;6.60;;;;;;5051896;28;20389;-76
2022/08/11 08:45:04;;;;;;;11.63;5.60;;;26.40;6.60;;;;;;5051595;28;20389;-77
2022/08/11 08:47:34;;;;;;;7.93;5.03;;;26.50;6.40;;;;;;5050933;28;20459;-77
2022/08/11 08:50:04;;;;;;;11.55;5.47;;;26.70;6.50;;;;;;5051808;28;20388;-78
2022/08/11 08:52:39;;;;;;;13.90;4.60;;;26.70;6.20;;;;;;5051627;28;20396;-78
2022/08/11 08:55:06;;;;;;;8.50;4.23;;;26.80;5.50;;;;;;5050444;28;20412;-77
2022/08/11 08:57:34;;;;;;;9.80;4.80;;;26.90;5.20;;;;;;5051712;28;20405;-78
2022/08/11 09:00:02;;;;;;;9.50;4.85;;;26.90;5.40;;;;;;5051711;28;20373;-77
2022/08/11 09:02:28;;;;;;;11.45;5.05;;;27.00;6.10;;;;;;5052050;28;20826;-78
2022/08/11 09:04:54;;;;;;;9.47;3.90;;;27.20;5.30;;;;;;5052584;28;20455;-77
2022/08/11 09:07:25;;;;;;;5.78;4.30;;;27.20;4.70;;;;;;5050101;28;20890;-77
2022/08/11 09:09:55;;;;;;;7.72;4.00;;;27.20;4.40;;;;;;5054271;28;20392;-76
2022/08/11 09:12:29;;;;;;;6.60;4.90;;;27.20;4.60;;;;;;5062421;28;20377;-76
2022/08/11 09:14:59;;;;;;;7.22;4.20;;;27.20;4.90;;;;;;5057582;28;20458;-76
2022/08/11 09:17:29;;;;;;;6.00;4.28;;;27.50;4.40;;;;;;5052297;28;20460;-78
2022/08/11 09:20:23;;;;;;;10.27;6.40;;;27.60;3.90;;;;;;5051924;28;20443;-76
2022/08/11 09:28:21;;;;;;;9.13;4.40;;;27.60;3.70;;;;;;5052414;28;20380;-77
2022/08/11 09:30:52;;;;;;;10.02;5.05;;;27.60;3.50;;;;;;5051639;28;20401;-76
2022/08/11 09:33:19;;;;;;;6.20;4.10;;;27.80;3.10;;;;;;5049877;28;20476;-77
2022/08/11 09:35:48;;;;;;;6.75;4.10;;;27.90;2.30;;;;;;5051767;28;20749;-77
2022/08/11 09:41:06;;;;;;;5.57;3.70;;;27.90;2.20;;;;;;5053247;28;20440;-77
2022/08/11 09:46:25;;;;;;;8.27;4.25;;;28.20;2.70;;;;;;5051624;28;20512;-76
2022/08/11 09:48:53;;;;;;;6.60;4.50;;;28.30;2.20;;;;;;5049919;28;20377;-77
2022/08/11 09:51:21;;;;;;;7.50;4.53;;;28.40;2.20;;;;;;5051388;28;20450;-78
2022/08/11 09:53:47;;;;;;;6.22;4.30;;;28.40;1.70;;;;;;5051341;28;20409;-77
2022/08/11 09:59:08;;;;;;;6.03;3.95;;;28.50;1.10;;;;;;5051743;28;20385;-78
2022/08/11 10:01:41;;;;;;;5.78;3.50;;;28.30;1.00;;;;;;5054397;28;20551;-78
2022/08/11 10:04:17;;;;;;;4.43;3.80;;;28.50;1.00;;;;;;5055063;28;20392;-77
2022/08/11 10:07:00;;;;;;;5.40;3.65;;;28.60;1.00;;;;;;5055927;28;20466;-76
2022/08/11 10:09:32;;;;;;;5.22;4.30;;;28.50;1.00;;;;;;5056142;28;20462;-77
2022/08/11 10:12:01;;;;;;;7.22;3.90;;;28.70;1.00;;;;;;5071133;28;20442;-77
2022/08/11 10:17:17;;;;;;;9.45;4.40;;;28.70;1.00;;;;;;5057364;28;20431;-78
2022/08/11 10:19:46;;;;;;;6.15;3.60;;;28.80;1.00;;;;;;5056280;28;20393;-76
2022/08/11 10:27:44;;;;;;;9.90;4.47;;;29.10;1.00;;;;;;5054349;28;20856;-77
2022/08/11 10:35:44;;;;;;;5.47;3.60;;;29.10;1.00;;;;;;5067131;28;20774;-76
2022/08/11 10:38:12;;;;;;;4.63;3.33;;;29.10;1.00;;;;;;5065114;28;20418;-78
2022/08/11 10:40:39;;;;;;;4.53;3.50;;;29.10;1.00;;;;;;5057473;28;20385;-78
2022/08/11 10:43:09;;;;;;;6.50;3.77;;;29.10;1.00;;;;;;5055138;28;20523;-77
2022/08/11 10:48:25;;;;;;;10.57;3.80;;;29.40;1.00;;;;;;5054738;28;20407;-78
2022/08/11 10:59:09;;;;;;;9.23;4.38;;;29.70;1.00;;;;;;5054729;28;20400;-76
2022/08/11 11:01:39;;;;;;;6.65;4.20;;;29.60;1.00;;;;;;5052880;28;20385;-77
2022/08/11 11:04:14;;;;;;;9.25;4.97;;;29.80;1.00;;;;;;5054035;28;20961;-77
2022/08/11 11:06:54;;;;;;;11.68;4.45;;;29.80;1.00;;;;;;5055225;28;20393;-76
2022/08/11 11:09:31;;;;;;;7.20;4.10;;;29.80;1.00;;;;;;5054747;28;20400;-77
2022/08/11 11:18:03;;;;;;;4.83;4.10;;;29.70;1.00;;;;;;5054654;28;20396;-79
2022/08/11 11:21:06;;;;;;;7.70;3.88;;;29.80;1.00;;;;;;5052441;28;20377;-78
2022/08/11 11:23:58;;;;;;;5.75;4.03;;;30.00;1.00;;;;;;5053447;28;20727;-78
2022/08/11 11:27:02;;;;;;;10.18;4.80;;;30.20;1.00;;;;;;5053142;28;20381;-76
2022/08/11 11:29:49;;;;;;;5.10;4.30;;;30.30;1.00;;;;;;5041955;28;20389;-77
2022/08/11 11:32:33;;;;;;;8.85;4.40;;;30.30;1.00;;;;;;5053693;28;20393;-78
2022/08/11 11:35:14;;;;;;;6.97;4.50;;;30.20;1.00;;;;;;5054406;28;20401;-77
2022/08/11 11:37:44;;;;;;;6.93;4.88;;;30.40;1.00;;;;;;5053007;28;20378;-77
2022/08/11 11:40:13;;;;;;;7.90;5.30;;;30.40;1.00;;;;;;5052997;28;20380;-77
2022/08/11 11:42:40;;;;;;;15.82;4.50;;;30.50;1.00;;;;;;5053854;28;20796;-76
2022/08/11 11:45:08;;;;;;;8.13;3.92;;;30.60;1.00;;;;;;5053422;28;20862;-78
2022/08/11 11:47:36;;;;;;;6.57;3.97;;;30.70;1.00;;;;;;5053097;28;20869;-77
2022/08/11 11:50:03;;;;;;;5.57;3.80;;;30.90;1.00;;;;;;5053753;28;20472;-78
2022/08/11 11:52:29;;;;;;;7.13;3.90;;;30.90;1.00;;;;;;5053089;28;20745;-77
2022/08/11 11:54:56;;;;;;;4.25;3.20;;;31.00;1.00;;;;;;5069690;28;20409;-78
2022/08/11 12:02:59;;;;;;;4.50;3.60;;;30.70;1.00;;;;;;5068084;28;20411;-76
2022/08/11 12:05:26;;;;;;;8.65;3.30;;;30.70;1.00;;;;;;5065203;28;20386;-78
2022/08/11 12:08:14;;;;;;;6.50;3.60;;;30.70;1.00;;;;;;5053998;28;20424;-77
2022/08/11 12:10:49;;;;;;;5.47;3.70;;;30.80;1.00;;;;;;5053296;28;20747;-77
2022/08/11 12:16:03;;;;;;;5.55;3.85;;;30.70;1.00;;;;;;5052778;28;20443;-78
2022/08/11 12:18:34;;;;;;;6.60;3.60;;;30.80;1.00;;;;;;5052380;28;20466;-78
2022/08/11 12:21:01;;;;;;;7.65;3.97;;;30.90;1.00;;;;;;5052271;28;20493;-77
2022/08/11 12:29:04;;;;;;;6.30;4.03;;;30.70;1.00;;;;;;5052711;28;20395;-77
2022/08/11 12:31:31;;;;;;;10.37;4.70;;;30.70;1.00;;;;;;5052026;28;20381;-78
2022/08/11 12:34:04;;;;;;;4.53;3.60;;;30.90;1.00;;;;;;5052088;28;20679;-77
2022/08/11 12:36:35;;;;;;;4.85;3.95;;;30.90;1.00;;;;;;5052890;28;20442;-76
2022/08/11 12:39:04;;;;;;;6.55;4.40;;;30.70;1.00;;;;;;5052249;28;21000;-77
2022/08/11 12:47:02;;;;;;;4.10;3.55;;;30.90;1.00;;;;;;5053312;28;20450;-79
2022/08/11 12:52:23;;;;;;;7.90;4.30;;;31.30;1.00;;;;;;5064010;28;20430;-77
2022/08/11 12:55:12;;;;;;;7.72;3.60;;;31.40;1.00;;;;;;5071455;28;20430;-78
2022/08/11 13:06:05;;;;;;;5.18;3.83;;;31.60;1.00;;;;;;5057947;28;20392;-78
2022/08/11 13:08:34;;;;;;;4.82;3.95;;;31.70;1.00;;;;;;5057664;28;20400;-78
2022/08/11 13:13:47;;;;;;;6.40;4.13;;;32.10;1.00;;;;;;5056599;28;20523;-78
2022/08/11 13:16:14;;;;;;;7.80;3.85;;;32.20;1.00;;;;;;5056630;28;20768;-76
2022/08/11 13:18:41;;;;;;;5.88;4.00;;;32.40;1.00;;;;;;5052848;28;20748;-77
2022/08/11 13:21:10;;;;;;;4.40;3.88;;;32.30;1.00;;;;;;5061946;28;20389;-77
2022/08/11 13:23:37;;;;;;;4.53;3.10;;;32.30;1.00;;;;;;5083606;28;20734;-77
2022/08/11 13:26:04;;;;;;;4.63;3.47;;;32.20;1.00;;;;;;5068355;28;20385;-76
2022/08/11 13:28:30;;;;;;;5.45;4.95;;;32.30;1.00;;;;;;5062283;28;20385;-78
2022/08/11 13:31:13;;;;;;;8.02;3.70;;;32.40;1.00;;;;;;5059197;28;20389;-77
2022/08/11 13:33:44;;;;;;;7.20;3.20;;;33.00;1.00;;;;;;5055203;28;20772;-78
2022/08/11 13:36:11;;;;;;;5.13;3.40;;;33.70;1.00;;;;;;5054844;28;20420;-79
2022/08/11 13:38:41;;;;;;;4.32;3.33;;;34.00;1.00;;;;;;5061227;28;20420;-78
2022/08/11 13:41:36;;;;;;;3.45;3.15;;;34.10;1.00;;;;;;5058679;28;20388;-78
2022/08/11 13:43:54;;;;;;;7.50;3.80;;;34.50;1.00;;;;;;5059788;28;20461;-77
2022/08/11 13:46:23;;;;;;;6.03;3.83;;;34.30;1.00;;;;;;5058361;28;20384;-76
2022/08/11 13:48:51;;;;;;;8.88;3.80;;;34.90;1.00;;;;;;5059908;28;20490;-78
2022/08/11 13:51:30;;;;;;;7.03;3.90;;;35.20;1.00;;;;;;5058367;28;20387;-77
2022/08/11 13:54:12;;;;;;;4.17;3.80;;;35.40;1.00;;;;;;5061226;28;20424;-77
2022/08/11 13:56:41;;;;;;;4.53;3.33;;;35.80;1.00;;;;;;5062558;28;20397;-78
2022/08/11 13:59:09;;;;;;;6.45;3.80;;;35.90;1.00;;;;;;5062242;28;20385;-79
2022/08/11 14:01:42;;;;;;;4.18;3.30;;;36.20;1.00;;;;;;5058930;28;20377;-77
2022/08/11 14:04:20;;;;;;;9.30;5.70;;;36.50;1.00;;;;;;5061598;28;20397;-76
2022/08/11 14:06:52;;;;;;;6.85;3.70;;;36.70;1.00;;;;;;5060396;28;20723;-78
2022/08/11 14:09:25;;;;;;;4.35;3.53;;;36.30;1.00;;;;;;5032357;23;20426;-74
2022/08/11 14:14:46;;;;;;;7.90;3.60;;;36.60;1.00;;;;;;4994080;28;20437;-75
2022/08/11 14:17:15;;;;;;;5.38;3.90;;;36.70;1.00;;;;;;4994608;28;20401;-75
2022/08/11 14:19:43;;;;;;;4.88;4.47;;;37.20;1.00;;;;;;4973767;28;20475;-76
2022/08/11 14:22:12;;;;;;;5.85;3.88;;;37.70;1.00;;;;;;4975508;28;20470;-76
2022/08/11 14:24:42;;;;;;;4.47;3.42;;;37.70;1.00;;;;;;4975212;28;20395;-76
2022/08/11 14:27:13;;;;;;;3.90;3.60;;;37.50;1.00;;;;;;4974848;28;20395;-74
2022/08/11 14:29:42;;;;;;;5.28;3.50;;;37.60;1.00;;;;;;4974331;28;20439;-75
2022/08/11 14:32:10;;;;;;;3.70;3.30;;;37.90;1.00;;;;;;4989093;28;20489;-74
2022/08/11 14:34:40;;;;;;;5.28;3.40;;;38.30;1.00;;;;;;4974583;28;20466;-74
2022/08/11 14:37:12;;;;;;;3.60;3.30;;;37.60;1.00;;;;;;4974624;28;20389;-76
2022/08/11 14:39:53;;;;;;;8.95;3.70;;;38.00;1.00;;;;;;4973619;28;20388;-75
2022/08/11 14:48:03;;;;;;;8.93;4.00;;;36.00;1.00;;;;;;4974600;28;20803;-75
2022/08/11 14:50:32;;;;;;;4.10;3.78;;;36.90;1.00;;;;;;4973574;28;20396;-75
2022/08/11 14:53:00;;;;;;;5.43;4.00;;;37.70;1.00;;;;;;4974083;28;20427;-76
2022/08/11 14:58:17;;;;;;;7.35;4.35;;;38.30;1.00;;;;;;4976841;28;21098;-75
2022/08/11 15:00:43;;;;;;;4.70;4.30;;;38.40;1.00;;;;;;4973732;28;20392;-74
2022/08/11 15:03:11;;;;;;;7.10;3.72;;;38.30;1.00;;;;;;4973882;28;20446;-75
2022/08/11 15:05:52;;;;;;;10.80;6.25;;;38.00;1.00;;;;;;4974068;28;20395;-75
2022/08/11 15:08:19;;;;;;;8.90;4.07;;;38.30;1.00;;;;;;4909152;28;1840585;-74
2022/08/11 15:10:47;;;;;;;6.28;3.90;;;37.50;1.00;;;;;;4974682;28;20422;-75
2022/08/11 15:13:17;;;;;;;5.43;3.80;;;37.50;1.00;;;;;;4974585;28;20546;-75
2022/08/11 15:18:29;;;;;;;4.73;3.50;;;38.60;1.00;;;;;;4975783;28;20462;-76
2022/08/11 15:37:43;;;;;;;4.40;3.70;;;36.70;1.00;;;;;;4976901;28;20427;-74
2022/08/11 15:46:15;;;;;;;6.80;4.40;;;36.40;1.00;;;;;;4973777;28;20411;-75
2022/08/11 15:48:50;;;;;;;5.97;4.10;;;37.00;1.00;;;;;;4975659;28;20407;-75
2022/08/11 15:51:41;;;;;;;5.88;3.50;;;37.40;1.00;;;;;;4974125;28;20396;-75
2022/08/11 15:54:10;;;;;;;5.47;3.78;;;38.20;1.00;;;;;;4971934;28;20412;-75
2022/08/11 15:56:43;;;;;;;8.05;3.70;;;38.40;1.00;;;;;;4977664;28;20399;-76
2022/08/11 16:05:05;;;;;;;7.40;3.60;;;38.40;1.00;;;;;;4955274;28;20394;-76
2022/08/11 16:07:34;;;;;;;4.93;3.67;;;37.50;1.00;;;;;;4971980;28;20428;-75
2022/08/11 16:10:09;;;;;;;6.93;3.20;;;37.60;1.00;;;;;;4975130;28;20938;-74
2022/08/11 16:12:41;;;;;;;4.90;3.95;;;37.10;1.00;;;;;;4955063;28;20496;-75
2022/08/11 16:18:02;;;;;;;4.45;3.35;;;36.80;1.00;;;;;;4974101;28;20438;-76
2022/08/11 16:20:32;;;;;;;6.07;3.28;;;37.60;1.00;;;;;;4964313;28;20396;-76
2022/08/11 16:23:05;;;;;;;3.80;3.50;;;37.80;1.00;;;;;;4973286;28;20391;-75
2022/08/11 16:25:39;;;;;;;6.95;3.60;;;38.40;1.00;;;;;;4956381;28;20410;-75
2022/08/11 16:28:12;;;;;;;7.50;5.37;;;38.90;1.00;;;;;;4989071;28;20420;-75
2022/08/11 16:30:42;;;;;;;4.97;3.78;;;39.00;1.00;;;;;;4974495;28;20392;-75
2022/08/11 16:33:10;;;;;;;4.10;3.70;;;38.50;1.00;;;;;;4974453;28;20598;-75
2022/08/11 16:38:38;;;;;;;5.90;3.90;;;37.90;1.00;;;;;;4973291;28;20435;-74
2022/08/11 16:41:09;;;;;;;5.00;3.60;;;38.00;1.00;;;;;;4973453;28;20388;-75
2022/08/11 16:49:34;;;;;;;5.65;3.88;;;38.30;1.00;;;;;;4954890;28;20453;-76
2022/08/11 16:52:03;;;;;;;7.50;4.00;;;38.20;1.00;;;;;;4955423;28;20483;-75
2022/08/11 16:54:34;;;;;;;5.80;3.83;;;37.90;1.00;;;;;;4967783;28;20420;-75
2022/08/11 16:59:52;;;;;;;4.95;3.40;;;37.50;1.00;;;;;;4952712;28;20409;-74
2022/08/11 17:13:07;;;;;;;9.20;3.92;;;35.70;1.00;;;;;;4970457;28;20956;-75
2022/08/11 17:13:59;;;;;;;4.85;4.38;;;32.50;1.00;;;;;;4951354;29;20425;-75
2022/08/11 17:16:37;;;;;;;6.53;3.95;;;32.20;1.00;;;;;;4968920;28;20399;-75
2022/08/11 17:19:22;;;;;;;5.32;4.32;;;31.90;1.00;;;;;;4951769;28;20899;-75
2022/08/11 17:24:37;;;;;;;6.43;4.43;;;31.40;1.00;;;;;;4961554;28;20415;-76
2022/08/11 17:27:06;;;;;;;9.95;6.13;;;31.20;1.00;;;;;;4970720;28;20399;-74
2022/08/11 17:29:41;;;;;;;5.63;5.13;;;31.20;1.00;;;;;;4970343;28;20793;-75
2022/08/11 17:37:52;;;;;;;6.10;3.90;;;30.80;1.00;;;;;;4971332;28;20877;-75
2022/08/11 17:40:24;;;;;;;10.30;4.53;;;30.70;1.00;;;;;;4985422;28;20543;-76
2022/08/11 17:48:52;;;;;;;12.57;4.53;;;30.40;1.00;;;;;;4973305;28;20455;-76
2022/08/11 17:59:51;;;;;;;8.60;4.10;;;30.10;1.00;;;;;;4971309;28;20403;-74
2022/08/11 18:05:05;;;;;;;8.75;4.10;;;29.90;1.00;;;;;;4971308;28;20403;-77
